Time;durP1;ratioP1;P1;durP2;ratioP2;P2;SDS_P1;SDS_P2;PMS_P1;PMS_P2;Temp;Humidity;BMP_temperature;BMP_pressure;BME280_temperature;BME280_humidity;BME280_pressure;Samples;Min_cycle;Max_cycle;Signal;HPM_P1;HPM_P2
2022/09/25 00:01:00;;;;;;;11.50;3.00;;;;;;;10.88;100.00;101385.75;5265671;28;20041;-77
2022/09/25 00:03:32;;;;;;;9.77;3.08;;;;;;;10.94;100.00;101385.69;5266222;28;20537;-76
2022/09/25 00:06:06;;;;;;;11.25;2.90;;;;;;;10.86;100.00;101386.63;5281243;28;20078;-76
2022/09/25 00:08:38;;;;;;;12.73;2.90;;;;;;;10.81;100.00;101391.84;5265427;28;20590;-77
2022/09/25 00:11:19;;;;;;;9.93;3.50;;;;;;;10.75;100.00;101395.38;5266267;28;20036;-76
2022/09/25 00:13:51;;;;;;;13.85;2.95;;;;;;;10.74;100.00;101398.84;5265258;28;20049;-77
2022/09/25 00:16:26;;;;;;;9.15;3.53;;;;;;;10.63;100.00;101400.63;5265253;28;20045;-77
2022/09/25 00:21:51;;;;;;;9.77;2.70;;;;;;;10.65;100.00;101401.47;5265195;28;20049;-77
2022/09/25 00:24:23;;;;;;;10.52;3.45;;;;;;;10.57;100.00;101403.22;5265026;28;20044;-76
2022/09/25 00:26:54;;;;;;;9.70;3.00;;;;;;;10.57;100.00;101401.47;5263747;28;20041;-77
2022/09/25 00:29:25;;;;;;;7.07;2.57;;;;;;;10.53;100.00;101402.38;5264783;28;20025;-76
2022/09/25 00:31:57;;;;;;;12.80;4.07;;;;;;;10.54;100.00;101401.50;5264964;28;20036;-76
2022/09/25 00:34:28;;;;;;;10.43;2.90;;;;;;;10.49;100.00;101403.25;5264503;28;20037;-78
2022/09/25 00:36:59;;;;;;;10.53;3.37;;;;;;;10.55;100.00;101405.00;5265341;28;20037;-76
2022/09/25 00:39:32;;;;;;;10.33;3.30;;;;;;;10.42;100.00;101398.03;5264613;28;20108;-76
2022/09/25 00:42:03;;;;;;;10.95;3.38;;;;;;;10.41;100.00;101402.41;5264736;28;20032;-76
2022/09/25 00:44:56;;;;;;;8.07;3.63;;;;;;;10.36;100.00;101393.72;5265169;28;20029;-74
2022/09/25 00:47:36;;;;;;;10.63;3.25;;;;;;;10.41;100.00;101399.78;5265089;28;20338;-75
2022/09/25 00:50:31;;;;;;;13.02;2.70;;;;;;;10.45;100.00;101396.31;5264337;28;20400;-76
2022/09/25 00:53:16;;;;;;;12.73;3.53;;;;;;;10.40;100.00;101393.72;5264599;28;20526;-76
2022/09/25 00:55:49;;;;;;;12.90;2.83;;;;;;;10.33;100.00;101401.56;5264256;28;20413;-77
2022/09/25 00:58:24;;;;;;;11.57;2.75;;;;;;;10.32;100.00;101397.16;5264173;28;20060;-77
2022/09/25 01:00:55;;;;;;;12.48;2.97;;;;;;;10.29;100.00;101400.66;5264590;28;20343;-77
2022/09/25 01:03:27;;;;;;;14.77;3.60;;;;;;;10.28;100.00;101406.72;5263525;28;20052;-76
2022/09/25 01:06:01;;;;;;;17.83;3.73;;;;;;;10.27;100.00;101401.53;5264514;28;20041;-78
2022/09/25 01:08:33;;;;;;;11.32;3.65;;;;;;;10.23;100.00;101400.66;5270258;28;20442;-75
2022/09/25 01:11:05;;;;;;;15.75;3.67;;;;;;;10.21;100.00;101405.03;5270939;28;20060;-76
2022/09/25 01:13:37;;;;;;;11.97;3.07;;;;;;;10.19;100.00;101404.13;5265956;28;20076;-76
2022/09/25 01:16:19;;;;;;;8.50;2.65;;;;;;;10.20;100.00;101404.13;5263841;28;20124;-76
2022/09/25 01:19:16;;;;;;;11.45;3.38;;;;;;;10.16;100.00;101398.97;5263902;28;20041;-75
2022/09/25 01:21:53;;;;;;;9.32;3.10;;;;;;;10.09;100.00;101402.41;5263581;28;20358;-76
2022/09/25 01:24:59;;;;;;;8.98;3.25;;;;;;;10.05;100.00;101398.97;5264125;28;20514;-76
2022/09/25 01:27:40;;;;;;;11.35;3.47;;;;;;;9.99;100.00;101398.97;5262770;28;20060;-75
2022/09/25 01:30:13;;;;;;;12.88;3.35;;;;;;;9.93;100.00;101402.41;5264091;28;20025;-77
2022/09/25 01:33:07;;;;;;;8.10;3.00;;;;;;;9.87;100.00;101399.84;5263756;28;20033;-76
2022/09/25 01:35:51;;;;;;;14.73;3.72;;;;;;;9.86;100.00;101408.50;5264061;28;20367;-76
2022/09/25 01:38:34;;;;;;;13.70;2.92;;;;;;;9.79;100.00;101410.25;5263694;28;20032;-76
2022/09/25 01:41:29;;;;;;;10.40;3.45;;;;;;;9.78;100.00;101405.03;5264019;28;20029;-76
2022/09/25 01:44:31;;;;;;;13.63;4.18;;;;;;;9.73;100.00;101412.84;5264310;28;20373;-76
2022/09/25 01:47:09;;;;;;;12.20;4.00;;;;;;;9.69;100.00;101416.28;5262346;28;20037;-76
2022/09/25 01:49:46;;;;;;;10.43;3.80;;;;;;;9.67;100.00;101410.22;5264190;28;20029;-77
2022/09/25 01:52:22;;;;;;;14.82;3.78;;;;;;;9.61;100.00;101421.50;5263639;28;20029;-76
2022/09/25 01:55:01;;;;;;;10.43;3.78;;;;;;;9.58;100.00;101418.03;5263446;28;20037;-75
2022/09/25 01:57:52;;;;;;;11.25;3.53;;;;;;;9.54;100.00;101421.50;5264312;28;20033;-76
2022/09/25 02:00:24;;;;;;;9.98;3.75;;;;;;;9.50;100.00;101425.84;5263469;28;20029;-76
2022/09/25 02:03:08;;;;;;;11.77;3.47;;;;;;;9.46;100.00;101417.13;5264008;28;20072;-77
2022/09/25 02:05:45;;;;;;;14.00;3.75;;;;;;;9.41;100.00;101415.41;5263925;28;20029;-76
2022/09/25 02:08:23;;;;;;;8.18;3.20;;;;;;;9.47;100.00;101420.63;5269879;28;20060;-76
2022/09/25 02:10:58;;;;;;;9.60;3.40;;;;;;;9.36;100.00;101418.00;5265816;28;20032;-76
2022/09/25 02:13:54;;;;;;;9.75;3.58;;;;;;;9.34;100.00;101417.13;5262956;28;20040;-76
2022/09/25 02:16:34;;;;;;;13.32;3.35;;;;;;;9.30;100.00;101412.75;5262980;28;20029;-76
2022/09/25 02:22:14;;;;;;;9.27;2.70;;;;;;;9.31;100.00;101412.78;5263368;28;20049;-76
2022/09/25 02:24:53;;;;;;;11.02;3.35;;;;;;;9.31;100.00;101410.16;5263017;28;20047;-76
2022/09/25 02:27:26;;;;;;;9.85;3.00;;;;;;;9.25;100.00;101419.69;5263778;28;20108;-76
2022/09/25 02:29:57;;;;;;;8.65;2.67;;;;;;;9.16;100.00;101406.66;5262843;28;20032;-75
2022/09/25 02:32:31;;;;;;;9.80;3.27;;;;;;;9.16;100.00;101414.44;5263135;28;20453;-76
2022/09/25 02:35:02;;;;;;;8.82;3.30;;;;;;;9.16;100.00;101412.75;5262991;28;20372;-76
2022/09/25 02:37:34;;;;;;;5.57;2.93;;;;;;;9.13;100.00;101415.34;5262515;28;20029;-76
2022/09/25 02:40:05;;;;;;;5.27;2.80;;;;;;;9.16;100.00;101414.44;5262756;28;20324;-77
2022/09/25 02:42:54;;;;;;;10.40;3.17;;;;;;;9.05;100.00;101411.84;5262844;28;20042;-77
2022/09/25 02:45:35;;;;;;;9.25;2.83;;;;;;;9.05;100.00;101420.50;5262729;28;20142;-76
2022/09/25 02:48:22;;;;;;;11.82;3.22;;;;;;;9.02;100.00;101420.50;5262613;28;20029;-76
2022/09/25 02:51:16;;;;;;;10.10;3.25;;;;;;;9.02;100.00;101415.28;5262733;28;20024;-77
2022/09/25 02:53:55;;;;;;;16.30;4.03;;;;;;;9.02;100.00;101417.03;5262598;28;20029;-76
2022/09/25 02:56:27;;;;;;;11.60;4.15;;;;;;;8.98;100.00;101415.25;5263160;28;20083;-77
2022/09/25 02:59:05;;;;;;;11.67;3.30;;;;;;;8.90;100.00;101408.31;5261502;28;20472;-76
2022/09/25 03:01:40;;;;;;;9.00;4.15;;;;;;;8.86;100.00;101397.91;5263047;28;20029;-77
2022/09/25 03:04:15;;;;;;;11.18;3.38;;;;;;;8.99;100.00;101399.66;5266588;28;20028;-76
2022/09/25 03:06:47;;;;;;;12.30;3.08;;;;;;;8.93;100.00;101404.84;5269404;28;20041;-77
2022/09/25 03:09:21;;;;;;;8.33;3.60;;;;;;;8.92;100.00;101401.38;5263209;28;20439;-76
2022/09/25 03:11:53;;;;;;;10.75;3.60;;;;;;;8.80;100.00;101403.91;5262409;28;20388;-76
2022/09/25 03:14:26;;;;;;;;;;;;;;;8.86;100.00;101408.28;5263175;28;20049;-76
2022/09/25 03:17:01;;;;;;;7.57;3.25;;;;;;;8.71;100.00;101396.97;5262367;28;19912;-77
2022/09/25 03:19:33;;;;;;;11.20;3.33;;;;;;;8.70;100.00;101400.41;5262337;28;20021;-76
2022/09/25 03:22:05;;;;;;;8.32;3.78;;;;;;;8.67;100.00;101395.19;5262383;28;20033;-76
2022/09/25 03:24:37;;;;;;;12.43;3.07;;;;;;;8.62;100.00;101407.31;5262647;28;20120;-76
2022/09/25 03:27:08;;;;;;;7.60;3.17;;;;;;;8.56;100.00;101405.56;5262283;28;20049;-76
2022/09/25 03:29:41;;;;;;;11.10;3.40;;;;;;;8.47;100.00;101397.69;5261279;28;20040;-76
2022/09/25 03:32:13;;;;;;;8.05;3.67;;;;;;;8.57;100.00;101403.81;5262319;28;20036;-76
2022/09/25 03:34:44;;;;;;;9.52;3.03;;;;;;;8.48;100.00;101411.56;5262095;28;20037;-76
2022/09/25 03:37:16;;;;;;;9.60;3.67;;;;;;;8.43;100.00;101408.03;5262551;28;20384;-77
2022/09/25 03:39:47;;;;;;;7.67;3.37;;;;;;;8.42;100.00;101409.78;5262137;28;20029;-75
2022/09/25 03:42:18;;;;;;;13.77;4.23;;;;;;;8.48;100.00;101407.22;5262148;28;20072;-75
2022/09/25 03:44:50;;;;;;;9.93;4.30;;;;;;;8.42;100.00;101398.50;5260875;28;20083;-75
2022/09/25 03:47:21;;;;;;;10.37;4.53;;;;;;;8.38;100.00;101398.47;5262046;28;20400;-76
2022/09/25 03:49:53;;;;;;;9.10;4.23;;;;;;;8.37;100.00;101396.75;5262389;28;20029;-75
2022/09/25 03:52:24;;;;;;;6.60;4.00;;;;;;;8.36;100.00;101410.59;5262274;28;20457;-76
2022/09/25 03:54:55;;;;;;;11.20;4.30;;;;;;;8.39;100.00;101407.16;5277696;28;20456;-76
2022/09/25 03:57:26;;;;;;;8.73;4.03;;;;;;;8.40;100.00;101406.28;5261673;28;20037;-76
2022/09/25 04:00:00;;;;;;;13.23;4.80;;;;;;;8.29;100.00;101403.63;5262010;28;20376;-76
2022/09/25 04:02:32;;;;;;;20.60;5.68;;;;;;;8.25;100.00;101411.38;5265181;28;20064;-75
2022/09/25 04:05:04;;;;;;;14.10;5.07;;;;;;;8.30;100.00;101404.50;5265934;28;20106;-75
2022/09/25 04:07:35;;;;;;;12.93;5.83;;;;;;;8.31;100.00;101409.69;5265577;28;20049;-75
2022/09/25 04:10:07;;;;;;;14.63;5.77;;;;;;;8.16;100.00;101396.59;5265863;28;20483;-75
2022/09/25 04:12:38;;;;;;;13.77;7.53;;;;;;;8.20;100.00;101404.41;5265549;28;20037;-75
2022/09/25 04:15:10;;;;;;;10.10;6.80;;;;;;;8.12;100.00;101403.50;5265490;28;20770;-75
2022/09/25 04:17:41;;;;;;;11.80;6.17;;;;;;;8.16;100.00;101399.19;5265006;28;20029;-75
2022/09/25 04:20:12;;;;;;;12.10;7.47;;;;;;;8.16;100.00;101404.38;5265345;28;20480;-75
2022/09/25 04:22:44;;;;;;;11.97;8.00;;;;;;;8.10;100.00;101407.81;5265273;28;20036;-75
2022/09/25 04:25:15;;;;;;;18.97;8.43;;;;;;;8.12;100.00;101397.44;5265292;28;20071;-75
2022/09/25 04:27:48;;;;;;;16.53;7.67;;;;;;;8.12;100.00;101395.72;5265550;28;20044;-75
2022/09/25 04:30:25;;;;;;;16.10;8.38;;;;;;;8.03;100.00;101388.72;5265327;28;20461;-75
2022/09/25 04:35:46;;;;;;;12.50;7.88;;;;;;;8.05;100.00;101399.13;5265016;28;20041;-75
2022/09/25 04:38:17;;;;;;;14.83;9.10;;;;;;;7.96;100.00;101402.50;5263913;28;20417;-76
2022/09/25 04:40:49;;;;;;;10.93;8.17;;;;;;;7.95;100.00;101397.31;5265145;28;20029;-75
2022/09/25 04:43:21;;;;;;;11.77;8.10;;;;;;;7.89;100.00;101399.84;5263640;28;20061;-76
2022/09/25 04:45:53;;;;;;;12.70;8.20;;;;;;;7.85;100.00;101401.56;5264576;28;20033;-75
2022/09/25 04:48:24;;;;;;;13.67;9.13;;;;;;;7.93;100.00;101397.28;5265027;28;20380;-75
2022/09/25 04:50:57;;;;;;;9.90;8.10;;;;;;;7.87;100.00;101393.78;5264764;28;20025;-75
2022/09/25 04:53:29;;;;;;;;;;;;;;;7.85;100.00;101393.75;5264999;28;20032;-76
2022/09/25 04:56:10;;;;;;;12.20;8.57;;;;;;;7.84;100.00;101392.00;5264372;28;20007;-76
2022/09/25 04:58:46;;;;;;;12.10;9.25;;;;;;;7.77;100.00;101393.69;5269336;28;20476;-76
2022/09/25 05:01:19;;;;;;;12.73;8.43;;;;;;;7.70;100.00;101394.50;5271477;28;20028;-76
2022/09/25 05:03:52;;;;;;;12.90;8.38;;;;;;;7.61;100.00;101387.50;5265494;28;20460;-76
2022/09/25 05:06:25;;;;;;;14.73;9.05;;;;;;;7.64;100.00;101390.13;5264031;28;20115;-76
2022/09/25 05:08:57;;;;;;;13.63;9.25;;;;;;;7.68;100.00;101385.84;5264285;28;20483;-76
2022/09/25 05:11:28;;;;;;;13.67;8.83;;;;;;;7.62;100.00;101385.78;5264045;28;20037;-77
2022/09/25 05:14:00;;;;;;;14.17;10.07;;;;;;;7.64;100.00;101395.31;5246003;28;20049;-76
2022/09/25 05:16:31;;;;;;;14.73;9.23;;;;;;;7.61;100.00;101397.00;5264198;28;20032;-76
2022/09/25 05:19:02;;;;;;;11.70;8.03;;;;;;;7.58;100.00;101390.09;5264226;28;20040;-76
2022/09/25 05:21:34;;;;;;;14.83;8.80;;;;;;;7.49;100.00;101383.06;5264043;28;20052;-76
2022/09/25 05:24:07;;;;;;;11.10;8.00;;;;;;;7.44;100.00;101379.56;5264334;28;20041;-76
2022/09/25 05:26:40;;;;;;;12.85;9.32;;;;;;;7.41;100.00;101394.25;5264356;28;20112;-76
2022/09/25 05:29:11;;;;;;;;;;;;;;;7.46;100.00;101389.97;5263560;28;20175;-76
2022/09/25 05:31:45;;;;;;;12.60;9.02;;;;;;;7.52;100.00;101377.06;5263483;28;19996;-78
2022/09/25 05:34:16;;;;;;;14.00;10.10;;;;;;;7.51;100.00;101379.63;5263395;28;20041;-77
2022/09/25 05:36:48;;;;;;;13.10;8.93;;;;;;;7.40;100.00;101382.97;5263542;28;20033;-77
2022/09/25 05:39:19;;;;;;;15.67;10.07;;;;;;;7.44;100.00;101387.34;5263477;28;20029;-76
2022/09/25 05:41:50;;;;;;;11.53;8.70;;;;;;;7.46;100.00;101382.19;5263609;28;20099;-77
2022/09/25 05:44:23;;;;;;;13.70;8.57;;;;;;;7.44;100.00;101389.94;5263666;28;20057;-77
2022/09/25 05:46:55;;;;;;;13.05;8.85;;;;;;;7.45;100.00;101380.44;5263121;28;20033;-76
2022/09/25 05:49:27;;;;;;;10.90;7.80;;;;;;;7.48;100.00;101390.84;5263281;28;20535;-76
2022/09/25 05:51:58;;;;;;;14.63;9.48;;;;;;;7.45;100.00;101388.22;5263305;28;20033;-76
2022/09/25 05:54:30;;;;;;;12.70;9.80;;;;;;;7.48;100.00;101391.69;5278642;28;20033;-76
2022/09/25 05:57:01;;;;;;;11.23;9.83;;;;;;;7.44;100.00;101404.66;5265845;28;20104;-77
2022/09/25 05:59:34;;;;;;;15.07;9.40;;;;;;;7.38;100.00;101404.59;5265701;28;20035;-77
2022/09/25 06:02:05;;;;;;;15.05;9.93;;;;;;;7.42;100.00;101408.94;5263284;28;20328;-76
2022/09/25 06:04:36;;;;;;;14.03;8.63;;;;;;;7.39;100.00;101411.50;5262699;28;20097;-76
2022/09/25 06:07:10;;;;;;;15.03;10.30;;;;;;;7.39;100.00;101411.50;5262985;28;20504;-76
2022/09/25 06:09:42;;;;;;;15.68;9.77;;;;;;;7.39;100.00;101403.72;5263310;28;20032;-77
2022/09/25 06:12:13;;;;;;;16.37;10.00;;;;;;;7.40;100.00;101411.50;5263151;28;20457;-82
2022/09/25 06:14:44;;;;;;;18.57;11.03;;;;;;;7.46;100.00;101403.78;5263447;28;20045;-82
2022/09/25 06:17:16;;;;;;;13.20;9.73;;;;;;;7.57;100.00;101401.31;5263024;28;20124;-81
2022/09/25 06:19:48;;;;;;;20.27;12.27;;;;;;;7.60;100.00;101406.53;5262811;28;20087;-81
2022/09/25 06:22:19;;;;;;;24.42;13.95;;;;;;;7.62;100.00;101409.16;5262461;28;20029;-81
2022/09/25 06:24:50;;;;;;;13.23;11.07;;;;;;;7.71;100.00;101405.75;5262451;28;20037;-81
2022/09/25 06:27:22;;;;;;;19.03;12.70;;;;;;;7.74;100.00;101405.78;5262225;28;20025;-78
2022/09/25 06:29:53;;;;;;;20.30;14.00;;;;;;;7.78;100.00;101400.63;5262821;28;20039;-79
2022/09/25 06:32:24;;;;;;;21.37;14.20;;;;;;;7.88;100.00;101409.38;5262276;28;20530;-80
2022/09/25 06:34:56;;;;;;;18.03;12.90;;;;;;;7.95;100.00;101403.38;5260674;28;20025;-80
2022/09/25 06:37:27;;;;;;;17.40;13.57;;;;;;;8.04;100.00;101410.38;5262497;28;20028;-80
2022/09/25 06:39:59;;;;;;;16.67;12.77;;;;;;;8.10;100.00;101404.34;5260934;28;20136;-79
2022/09/25 06:42:32;;;;;;;18.97;13.60;;;;;;;8.12;100.00;101402.63;5261926;28;20055;-80
2022/09/25 06:45:04;;;;;;;21.17;13.02;;;;;;;8.21;100.00;101406.16;5262662;28;20147;-80
2022/09/25 06:47:35;;;;;;;22.67;14.30;;;;;;;8.28;100.00;101408.81;5261187;28;20033;-80
2022/09/25 06:50:07;;;;;;;18.27;13.77;;;;;;;8.37;100.00;101411.44;5261605;28;20024;-79
2022/09/25 06:52:42;;;;;;;19.80;14.13;;;;;;;8.46;100.00;101414.13;5262759;28;20114;-81
2022/09/25 06:55:14;;;;;;;18.70;13.88;;;;;;;8.51;100.00;101414.16;5282293;28;20056;-79
2022/09/25 06:57:45;;;;;;;19.70;13.83;;;;;;;8.63;100.00;101418.56;5274265;28;20029;-79
2022/09/25 07:00:16;;;;;;;22.67;14.30;;;;;;;8.69;100.00;101414.25;5261857;28;20037;-78
2022/09/25 07:05:38;;;;;;;16.30;12.10;;;;;;;8.88;100.00;101417.81;5262392;28;20496;-80
2022/09/25 07:08:19;;;;;;;18.77;12.07;;;;;;;9.00;100.00;101421.34;5262038;28;20123;-80
2022/09/25 07:10:53;;;;;;;19.23;12.73;;;;;;;9.10;100.00;101412.72;5261644;28;20044;-80
2022/09/25 07:13:28;;;;;;;19.88;11.88;;;;;;;9.24;100.00;101420.53;5262013;28;20099;-80
2022/09/25 07:16:05;;;;;;;19.73;12.57;;;;;;;9.34;100.00;101418.84;5261779;28;20032;-79
2022/09/25 07:18:36;;;;;;;15.43;11.57;;;;;;;9.46;100.00;101424.09;5261578;28;20166;-80
2022/09/25 07:21:11;;;;;;;17.90;11.57;;;;;;;9.51;100.00;101422.34;5260610;28;20037;-79
2022/09/25 07:23:43;;;;;;;16.23;11.50;;;;;;;9.58;100.00;101423.22;5262465;28;20028;-79
2022/09/25 07:26:26;;;;;;;16.83;12.37;;;;;;;9.76;100.00;101430.22;5261714;28;20033;-79
2022/09/25 07:29:02;;;;;;;;;;;;;;;9.85;100.00;101425.88;5262240;28;20121;-77
2022/09/25 07:31:36;;;;;;;16.38;10.07;;;;;;;9.92;100.00;101429.34;5261972;28;19908;-80
2022/09/25 07:34:08;;;;;;;12.88;9.18;;;;;;;9.99;100.00;101433.69;5261870;28;20108;-79
2022/09/25 07:36:41;;;;;;;14.60;10.97;;;;;;;10.15;100.00;101431.06;5265776;28;20116;-79
2022/09/25 07:39:13;;;;;;;16.17;11.25;;;;;;;10.28;100.00;101438.00;5265752;28;20472;-79
2022/09/25 07:41:45;;;;;;;17.13;9.13;;;;;;;10.40;100.00;101439.78;5264822;28;20068;-79
2022/09/25 07:44:16;;;;;;;13.53;7.17;;;;;;;10.49;100.00;101437.13;5265893;28;20275;-79
2022/09/25 07:46:47;;;;;;;9.47;7.30;;;;;;;10.66;100.00;101433.63;5265427;28;20090;-78
2022/09/25 07:49:19;;;;;;;15.20;8.10;;;;;;;10.76;100.00;101441.41;5265762;28;20048;-79
2022/09/25 07:51:51;;;;;;;10.67;5.90;;;;;;;10.87;100.00;101436.16;5265282;28;20065;-79
2022/09/25 07:54:23;;;;;;;9.73;5.68;;;;;;;11.02;100.00;101439.59;5265406;28;20036;-80
2022/09/25 07:56:55;;;;;;;12.35;6.15;;;;;;;11.16;100.00;101434.28;5265257;28;20051;-79
2022/09/25 07:59:26;;;;;;;7.47;5.33;;;;;;;11.17;100.00;101430.81;5265409;28;20028;-79
2022/09/25 08:01:57;;;;;;;8.60;5.20;;;;;;;11.35;100.00;101425.53;5265836;28;20083;-78
2022/09/25 08:04:29;;;;;;;9.03;6.67;;;;;;;11.43;100.00;101433.28;5265349;28;20040;-79
2022/09/25 08:07:00;;;;;;;10.17;5.23;;;;;;;11.60;100.00;101426.22;5265328;28;20029;-79
2022/09/25 08:09:31;;;;;;;11.57;5.30;;;;;;;11.67;100.00;101424.41;5265312;28;20043;-79
2022/09/25 08:12:03;;;;;;;8.30;5.80;;;;;;;11.77;100.00;101425.22;5265224;28;20029;-79
2022/09/25 08:14:34;;;;;;;13.37;5.37;;;;;;;11.91;100.00;101425.97;5266018;28;20061;-79
2022/09/25 08:17:06;;;;;;;10.53;5.27;;;;;;;12.01;99.54;101424.19;5265399;28;20480;-80
2022/09/25 08:19:37;;;;;;;7.63;4.60;;;;;;;12.12;100.00;101421.50;5265135;28;20116;-79
2022/09/25 08:22:08;;;;;;;11.27;5.37;;;;;;;12.33;100.00;101421.31;5265309;28;20079;-79
2022/09/25 08:24:40;;;;;;;11.73;4.60;;;;;;;12.37;99.29;101414.28;5265376;28;20415;-80
2022/09/25 08:27:11;;;;;;;12.17;4.43;;;;;;;12.52;97.99;101421.97;5265055;28;20029;-80
2022/09/25 08:29:42;;;;;;;7.20;3.33;;;;;;;12.66;98.32;101423.59;5265346;28;20040;-79
2022/09/25 08:32:14;;;;;;;14.20;3.63;;;;;;;12.73;95.03;101428.69;5264856;28;20084;-80
2022/09/25 08:34:45;;;;;;;7.43;3.90;;;;;;;12.83;93.93;101426.00;5264850;28;20461;-80
2022/09/25 08:37:19;;;;;;;10.53;4.97;;;;;;;13.00;94.87;101429.28;5264619;28;20033;-80
2022/09/25 08:39:50;;;;;;;6.18;2.90;;;;;;;13.12;95.86;101430.84;5264237;28;20087;-79
2022/09/25 08:42:29;;;;;;;6.50;2.53;;;;;;;13.16;93.44;101421.22;5263529;28;20377;-79
2022/09/25 08:50:46;;;;;;;6.05;2.08;;;;;;;13.60;87.42;101438.09;5285859;28;20040;-79
2022/09/25 08:53:25;;;;;;;6.38;1.80;;;;;;;13.86;87.24;101432.44;5268013;28;20029;-79
2022/09/25 08:56:14;;;;;;;7.18;1.80;;;;;;;14.05;84.68;101438.25;5264296;28;20094;-80
2022/09/25 08:58:48;;;;;;;11.70;3.08;;;;;;;14.43;87.96;101435.88;5264159;28;20029;-79
2022/09/25 09:01:45;;;;;;;8.57;3.08;;;;;;;15.13;85.69;101439.75;5262945;28;20033;-80
2022/09/25 09:04:32;;;;;;;6.88;2.13;;;;;;;15.86;79.02;101430.25;5264776;28;20040;-80
2022/09/25 09:07:14;;;;;;;5.35;1.70;;;;;;;16.30;74.75;101425.59;5264171;28;20033;-80
2022/09/25 09:09:49;;;;;;;;;;;;;;;17.04;75.83;101430.63;5264569;28;20036;-80
2022/09/25 09:12:38;;;;;;;7.05;2.03;;;;;;;16.98;75.37;101425.53;5263790;28;20007;-80
2022/09/25 09:15:36;;;;;;;7.90;1.95;;;;;;;17.66;71.00;101419.91;5264096;28;20171;-80
2022/09/25 09:18:21;;;;;;;5.10;1.77;;;;;;;17.93;67.50;101422.56;5253338;28;20078;-80
2022/09/25 09:21:16;;;;;;;6.68;1.85;;;;;;;17.97;62.25;101420.72;5264456;28;20069;-80
2022/09/25 09:24:17;;;;;;;8.70;2.30;;;;;;;18.58;63.77;101417.72;5253287;28;20044;-79
2022/09/25 09:27:19;;;;;;;6.63;1.70;;;;;;;18.73;61.83;101422.41;5264275;28;20025;-79
2022/09/25 09:30:06;;;;;;;4.13;1.70;;;;;;;18.24;60.87;101421.56;5263843;28;20047;-79
2022/09/25 09:33:12;;;;;;;7.47;2.22;;;;;;;18.42;61.88;101422.69;5264065;28;20096;-80
2022/09/25 09:35:59;;;;;;;6.13;1.75;;;;;;;18.42;56.87;101422.69;5264208;28;20337;-80
2022/09/25 09:38:41;;;;;;;8.18;2.17;;;;;;;18.63;59.62;101426.31;5264058;28;20029;-80
2022/09/25 09:41:20;;;;;;;5.13;2.08;;;;;;;17.38;59.59;101417.28;5264361;28;20409;-80
2022/09/25 09:44:00;;;;;;;5.70;1.85;;;;;;;16.95;63.48;101415.94;5264801;28;20432;-80
2022/09/25 09:47:01;;;;;;;6.25;1.85;;;;;;;17.66;60.43;101409.38;5274136;28;20047;-80
2022/09/25 09:50:13;;;;;;;6.88;1.70;;;;;;;17.27;60.25;101417.59;5275539;28;20029;-80
2022/09/25 09:52:50;;;;;;;10.15;3.90;;;;;;;17.56;64.84;101404.44;5208087;28;20033;-80
2022/09/25 09:55:41;;;;;;;5.68;1.60;;;;;;;17.78;65.52;101400.19;5263587;28;20032;-80
2022/09/25 09:58:39;;;;;;;6.65;2.55;;;;;;;19.11;61.81;101403.41;5263151;28;20063;-79
2022/09/25 10:01:12;;;;;;;4.85;1.73;;;;;;;19.71;54.15;101401.06;5263494;28;20365;-80
2022/09/25 10:03:46;;;;;;;8.80;2.70;;;;;;;19.05;55.02;101407.19;5262961;28;20033;-79
2022/09/25 10:06:18;;;;;;;5.63;1.85;;;;;;;19.12;55.33;101398.09;5263007;28;20025;-78
2022/09/25 10:08:49;;;;;;;6.30;1.77;;;;;;;20.20;58.48;101391.03;5263324;28;20044;-78
2022/09/25 10:11:21;;;;;;;9.20;2.23;;;;;;;19.97;51.20;101399.13;5263300;28;20033;-78
2022/09/25 10:13:58;;;;;;;5.95;1.52;;;;;;;20.30;51.24;101393.31;5262771;28;20056;-80
2022/09/25 10:16:30;;;;;;;7.10;2.65;;;;;;;20.40;53.54;101389.34;5263254;28;20467;-78
2022/09/25 10:19:20;;;;;;;5.00;2.67;;;;;;;20.61;55.18;101389.28;5262714;28;20037;-78
2022/09/25 10:22:02;;;;;;;5.05;1.40;;;;;;;20.76;49.84;101385.97;5262849;28;20021;-78
2022/09/25 10:25:04;;;;;;;6.85;1.50;;;;;;;21.95;49.06;101389.09;5263376;28;20033;-77
2022/09/25 10:27:44;;;;;;;5.38;1.77;;;;;;;22.71;47.69;101390.47;5262483;28;20049;-78
2022/09/25 10:30:19;;;;;;;6.15;3.63;;;;;;;22.99;45.03;101392.50;5262311;28;20021;-77
2022/09/25 10:33:01;;;;;;;7.68;2.35;;;;;;;21.60;47.08;101382.91;5262959;28;20029;-79
2022/09/25 10:35:42;;;;;;;5.60;3.72;;;;;;;22.31;49.90;101382.84;5262601;28;20471;-78
2022/09/25 10:38:23;;;;;;;4.50;1.95;;;;;;;21.06;47.20;101381.03;5262552;28;20029;-78
2022/09/25 10:41:02;;;;;;;4.55;1.60;;;;;;;20.32;49.70;101380.88;5264762;28;20376;-77
2022/09/25 10:43:33;;;;;;;7.88;1.80;;;;;;;21.79;45.27;101378.38;5266927;28;20028;-78
2022/09/25 10:46:13;;;;;;;3.83;1.40;;;;;;;22.86;44.80;101384.34;5271672;28;20112;-77
2022/09/25 10:51:35;;;;;;;7.15;1.92;;;;;;;24.43;40.77;101386.88;5262323;28;20131;-77
2022/09/25 10:54:12;;;;;;;4.23;1.60;;;;;;;24.79;39.09;101389.06;5262147;28;20436;-77
2022/09/25 10:56:44;;;;;;;4.05;1.55;;;;;;;24.22;40.56;101379.22;5262093;28;20277;-77
2022/09/25 10:59:18;;;;;;;4.45;2.25;;;;;;;22.38;40.93;101378.09;5262169;28;20131;-77
2022/09/25 11:01:53;;;;;;;6.30;1.85;;;;;;;23.34;41.83;101376.38;5261066;28;20033;-77
2022/09/25 11:04:33;;;;;;;6.40;1.77;;;;;;;23.46;39.85;101366.84;5261890;28;20427;-77
2022/09/25 11:07:14;;;;;;;5.05;1.60;;;;;;;21.52;41.55;101375.31;5262156;28;20029;-78
2022/09/25 11:09:46;;;;;;;4.55;1.50;;;;;;;22.98;44.20;101368.66;5262486;28;20057;-77
2022/09/25 11:12:23;;;;;;;5.33;1.43;;;;;;;24.02;39.30;101368.00;5266192;28;20115;-76
2022/09/25 11:14:57;;;;;;;4.53;1.67;;;;;;;24.38;37.36;101361.34;5267330;28;20045;-76
2022/09/25 11:17:38;;;;;;;6.47;1.60;;;;;;;25.27;35.14;101370.00;5265679;28;20033;-76
2022/09/25 11:20:15;;;;;;;3.72;1.38;;;;;;;25.81;34.99;101372.63;5266171;28;20094;-76
2022/09/25 11:23:03;;;;;;;3.08;1.10;;;;;;;25.74;35.45;101367.81;5265851;28;20029;-76
2022/09/25 11:25:49;;;;;;;2.72;1.20;;;;;;;25.16;38.21;101367.16;5265995;28;20033;-76
2022/09/25 11:28:20;;;;;;;4.20;1.10;;;;;;;25.51;34.74;101364.88;5265546;28;20028;-75
2022/09/25 11:31:10;;;;;;;;;;;;;;;27.31;31.68;101363.94;5266254;28;20044;-77
2022/09/25 11:33:55;;;;;;;3.75;1.13;;;;;;;24.36;33.72;101360.59;5265219;28;19963;-77
2022/09/25 11:36:51;;;;;;;3.35;1.35;;;;;;;25.77;38.64;101357.78;5265355;28;20032;-77
2022/09/25 11:42:33;;;;;;;5.95;1.40;;;;;;;24.85;35.85;101351.34;5266235;28;20127;-77
2022/09/25 11:45:29;;;;;;;4.63;1.73;;;;;;;24.19;37.72;101347.44;5265957;28;20029;-77
2022/09/25 11:48:09;;;;;;;3.95;1.40;;;;;;;25.89;37.57;101352.56;5264949;28;20041;-77
2022/09/25 11:51:15;;;;;;;2.65;1.25;;;;;;;26.28;37.59;101346.28;5265835;28;20021;-77
2022/09/25 11:53:50;;;;;;;5.43;1.70;;;;;;;23.62;37.07;101349.03;5265990;28;20461;-77
2022/09/25 11:56:33;;;;;;;4.50;1.40;;;;;;;22.43;41.86;101344.16;5265045;28;20037;-78
2022/09/25 11:59:49;;;;;;;3.60;1.20;;;;;;;23.08;39.77;101336.16;5265028;28;20491;-77
2022/09/25 12:02:40;;;;;;;4.28;1.50;;;;;;;24.72;38.33;101334.41;5251997;28;20033;-78
2022/09/25 12:05:38;;;;;;;4.10;1.50;;;;;;;26.46;33.97;101336.13;5265480;28;20048;-78
2022/09/25 12:08:31;;;;;;;2.90;1.20;;;;;;;26.81;34.71;101326.56;5265482;28;20025;-77
2022/09/25 12:11:38;;;;;;;2.92;1.25;;;;;;;26.01;34.23;101322.38;5263800;28;20021;-78
2022/09/25 12:14:20;;;;;;;5.10;1.60;;;;;;;23.48;35.75;101327.69;5265185;28;20142;-76
2022/09/25 12:17:16;;;;;;;3.88;1.27;;;;;;;21.82;39.73;101311.03;5265408;28;20032;-78
2022/09/25 12:20:10;;;;;;;4.05;1.75;;;;;;;20.24;42.49;101320.31;5265786;28;20040;-78
2022/09/25 12:22:59;;;;;;;4.35;1.52;;;;;;;19.95;48.12;101319.81;5263614;28;20045;-78
2022/09/25 12:25:49;;;;;;;5.35;1.50;;;;;;;20.80;44.41;101315.16;5265858;28;20032;-79
2022/09/25 12:28:31;;;;;;;3.35;1.30;;;;;;;20.94;41.21;101310.91;5265123;28;20029;-79